This is the latest recevied weather packets stored in our database for station/object HS2LXA-WX. If no packets are shown the sender has not sent any weather packets the latest 10 day(s).
| Time | Temp. | Humidity | Pressure | Rain* | Wind** | Luminosity | Snow |
|---|---|---|---|---|---|---|---|
| 1777923213 | 30.56° C | 73% | 1013.1 hPa | 0 mm | - | - | - |
| 1777922613 | 30.56° C | 73% | 1013.1 hPa | 0 mm | - | - | - |
| 1777921834 | 30° C | 76% | 1013.1 hPa | 0 mm | - | - | - |
| 1777921230 | 30.56° C | 73% | 1013.1 hPa | 0 mm | - | - | - |
| 1777920630 | 30.56° C | 72% | 1013.2 hPa | 0 mm | - | - | - |
| 1777920029 | 30.56° C | 72% | 1013.1 hPa | 0 mm | - | - | - |
| 1777918429 | 30.56° C | 71% | 1013.2 hPa | 0 mm | - | - | - |
| 1777917462 | 30.56° C | 72% | 1013.1 hPa | 0.51 mm | - | - | - |
| 1777916862 | 30.56° C | 70% | 1013.2 hPa | 0.51 mm | - | - | - |
| 1777916061 | 30.56° C | 70% | 1013.1 hPa | 0.25 mm | - | - | - |
| 1777915461 | 31.11° C | 69% | 1013.1 hPa | 0.25 mm | - | - | - |
| 1777914861 | 31.11° C | 69% | 1013.2 hPa | 0.25 mm | - | - | - |
| 1777914157 | 31.11° C | 68% | 1013.2 hPa | 0 mm | - | - | - |
| 1777913557 | 31.11° C | 68% | 1013.2 hPa | 2.03 mm | - | - | - |
| 1777912957 | 30.56° C | 69% | 1013.1 hPa | 2.03 mm | - | - | - |
| 1777912357 | 31.11° C | 67% | 1013.2 hPa | 1.78 mm | - | - | - |
| 1777911757 | 30.56° C | 67% | 1013.1 hPa | 1.52 mm | - | - | - |
| 1777911157 | 29.44° C | 71% | 1013.1 hPa | 1.02 mm | - | - | - |
| 1777910557 | 30° C | 69% | 1013.2 hPa | 0.25 mm | - | - | - |
| 1777909955 | 30° C | 70% | 1013.2 hPa | 8.13 mm | - | - | - |
| 1777909355 | 31.11° C | 67% | 1013.2 hPa | 2.54 mm | - | - | - |
| 1777908756 | 32.78° C | 66% | 1013.2 hPa | 0 mm | - | - | - |
| 1777908154 | 32.78° C | 69% | 1013.1 hPa | 0 mm | - | - | - |
| 1777907519 | 32.78° C | 71% | 1013.1 hPa | 0 mm | - | - | - |
| 1777906919 | 31.11° C | 78% | 1013.2 hPa | 0 mm | - | - | - |
* Rain latest hour (hover to see other rain measurements)
** Current wind speed in m/s (hover to see current wind gust speed)